sensor_id;sensor_type;location;lat;lon;timestamp;P1;durP1;ratioP1;P2;durP2;ratioP2
36415;SDS011;22447;44.530;18.620;2022-09-27T00:02:24;66.28;;;39.78;;
36415;SDS011;22447;44.530;18.620;2022-09-27T00:04:50;74.88;;;40.53;;
36415;SDS011;22447;44.530;18.620;2022-09-27T00:07:16;68.50;;;38.33;;
36415;SDS011;22447;44.530;18.620;2022-09-27T00:09:42;69.22;;;41.08;;
36415;SDS011;22447;44.530;18.620;2022-09-27T00:12:08;94.25;;;50.47;;
36415;SDS011;22447;44.530;18.620;2022-09-27T00:14:34;83.68;;;46.72;;
36415;SDS011;22447;44.530;18.620;2022-09-27T00:17:00;82.05;;;44.50;;
36415;SDS011;22447;44.530;18.620;2022-09-27T00:19:26;72.93;;;40.67;;
36415;SDS011;22447;44.530;18.620;2022-09-27T00:21:52;76.43;;;41.75;;
36415;SDS011;22447;44.530;18.620;2022-09-27T00:24:19;80.80;;;45.58;;
36415;SDS011;22447;44.530;18.620;2022-09-27T00:26:47;74.38;;;43.03;;
36415;SDS011;22447;44.530;18.620;2022-09-27T00:29:14;71.25;;;42.13;;
36415;SDS011;22447;44.530;18.620;2022-09-27T00:31:43;72.65;;;42.95;;
36415;SDS011;22447;44.530;18.620;2022-09-27T00:36:42;78.30;;;44.83;;
36415;SDS011;22447;44.530;18.620;2022-09-27T00:39:08;80.07;;;42.38;;
36415;SDS011;22447;44.530;18.620;2022-09-27T00:41:34;73.85;;;40.20;;
36415;SDS011;22447;44.530;18.620;2022-09-27T00:44:47;96.38;;;48.80;;
36415;SDS011;22447;44.530;18.620;2022-09-27T00:55:10;85.35;;;45.55;;
36415;SDS011;22447;44.530;18.620;2022-09-27T01:00:10;84.43;;;43.05;;
36415;SDS011;22447;44.530;18.620;2022-09-27T01:02:38;84.47;;;42.70;;
36415;SDS011;22447;44.530;18.620;2022-09-27T01:05:07;71.95;;;38.80;;
36415;SDS011;22447;44.530;18.620;2022-09-27T01:07:35;78.35;;;40.50;;
36415;SDS011;22447;44.530;18.620;2022-09-27T01:10:02;83.78;;;40.45;;
36415;SDS011;22447;44.530;18.620;2022-09-27T01:15:23;81.72;;;42.90;;
36415;SDS011;22447;44.530;18.620;2022-09-27T01:20:44;71.95;;;41.03;;
36415;SDS011;22447;44.530;18.620;2022-09-27T01:26:04;64.07;;;36.63;;
36415;SDS011;22447;44.530;18.620;2022-09-27T01:31:35;60.88;;;36.22;;
36415;SDS011;22447;44.530;18.620;2022-09-27T01:34:23;69.38;;;40.92;;
36415;SDS011;22447;44.530;18.620;2022-09-27T01:42:57;73.93;;;40.67;;
36415;SDS011;22447;44.530;18.620;2022-09-27T01:45:36;67.80;;;39.22;;
36415;SDS011;22447;44.530;18.620;2022-09-27T01:48:43;69.07;;;39.38;;
36415;SDS011;22447;44.530;18.620;2022-09-27T01:51:19;67.78;;;38.90;;
36415;SDS011;22447;44.530;18.620;2022-09-27T01:54:01;73.18;;;41.13;;
36415;SDS011;22447;44.530;18.620;2022-09-27T01:56:50;74.45;;;40.85;;
36415;SDS011;22447;44.530;18.620;2022-09-27T01:59:30;85.70;;;43.78;;
36415;SDS011;22447;44.530;18.620;2022-09-27T02:02:24;74.28;;;40.17;;
36415;SDS011;22447;44.530;18.620;2022-09-27T02:05:16;82.32;;;43.78;;
36415;SDS011;22447;44.530;18.620;2022-09-27T02:07:51;76.25;;;41.63;;
36415;SDS011;22447;44.530;18.620;2022-09-27T02:10:23;73.50;;;40.65;;
36415;SDS011;22447;44.530;18.620;2022-09-27T02:12:56;78.25;;;39.42;;
36415;SDS011;22447;44.530;18.620;2022-09-27T02:15:27;85.20;;;43.75;;
36415;SDS011;22447;44.530;18.620;2022-09-27T02:18:27;96.80;;;49.08;;
36415;SDS011;22447;44.530;18.620;2022-09-27T02:20:59;88.53;;;46.33;;
36415;SDS011;22447;44.530;18.620;2022-09-27T02:26:18;98.25;;;44.50;;
36415;SDS011;22447;44.530;18.620;2022-09-27T02:31:32;96.30;;;44.95;;
36415;SDS011;22447;44.530;18.620;2022-09-27T02:34:00;100.03;;;44.95;;
36415;SDS011;22447;44.530;18.620;2022-09-27T02:36:29;94.95;;;45.00;;
36415;SDS011;22447;44.530;18.620;2022-09-27T02:38:55;83.57;;;43.35;;
36415;SDS011;22447;44.530;18.620;2022-09-27T02:41:22;136.45;;;52.15;;
36415;SDS011;22447;44.530;18.620;2022-09-27T02:43:51;102.35;;;47.60;;
36415;SDS011;22447;44.530;18.620;2022-09-27T02:46:37;82.93;;;41.75;;
36415;SDS011;22447;44.530;18.620;2022-09-27T02:49:53;86.43;;;41.50;;
36415;SDS011;22447;44.530;18.620;2022-09-27T02:52:58;76.13;;;39.43;;
36415;SDS011;22447;44.530;18.620;2022-09-27T02:58:51;69.40;;;39.05;;
36415;SDS011;22447;44.530;18.620;2022-09-27T03:02:13;72.63;;;37.42;;
36415;SDS011;22447;44.530;18.620;2022-09-27T03:05:12;73.80;;;38.13;;
36415;SDS011;22447;44.530;18.620;2022-09-27T03:07:42;77.47;;;41.25;;
36415;SDS011;22447;44.530;18.620;2022-09-27T03:10:14;74.88;;;38.55;;
36415;SDS011;22447;44.530;18.620;2022-09-27T03:12:42;76.65;;;38.85;;
36415;SDS011;22447;44.530;18.620;2022-09-27T03:15:08;77.97;;;37.65;;
36415;SDS011;22447;44.530;18.620;2022-09-27T03:17:55;73.85;;;38.35;;
36415;SDS011;22447;44.530;18.620;2022-09-27T03:20:40;71.97;;;38.65;;
36415;SDS011;22447;44.530;18.620;2022-09-27T03:23:15;69.35;;;37.47;;
36415;SDS011;22447;44.530;18.620;2022-09-27T03:25:41;75.85;;;37.72;;
36415;SDS011;22447;44.530;18.620;2022-09-27T03:28:08;78.57;;;40.28;;
36415;SDS011;22447;44.530;18.620;2022-09-27T03:30:35;75.22;;;38.70;;
36415;SDS011;22447;44.530;18.620;2022-09-27T03:33:02;70.30;;;37.28;;
36415;SDS011;22447;44.530;18.620;2022-09-27T03:35:55;70.38;;;36.63;;
36415;SDS011;22447;44.530;18.620;2022-09-27T03:38:21;67.68;;;35.28;;
36415;SDS011;22447;44.530;18.620;2022-09-27T03:40:48;74.20;;;37.83;;
36415;SDS011;22447;44.530;18.620;2022-09-27T03:43:14;80.43;;;40.72;;
36415;SDS011;22447;44.530;18.620;2022-09-27T03:45:43;79.07;;;42.42;;
36415;SDS011;22447;44.530;18.620;2022-09-27T03:48:10;72.05;;;38.45;;
36415;SDS011;22447;44.530;18.620;2022-09-27T03:50:36;73.97;;;39.65;;
36415;SDS011;22447;44.530;18.620;2022-09-27T03:53:02;77.75;;;40.22;;
36415;SDS011;22447;44.530;18.620;2022-09-27T03:55:29;75.20;;;37.72;;
36415;SDS011;22447;44.530;18.620;2022-09-27T03:57:55;71.85;;;37.80;;
36415;SDS011;22447;44.530;18.620;2022-09-27T04:00:21;78.05;;;38.38;;
36415;SDS011;22447;44.530;18.620;2022-09-27T04:02:48;72.30;;;38.97;;
36415;SDS011;22447;44.530;18.620;2022-09-27T04:05:20;71.53;;;38.10;;
36415;SDS011;22447;44.530;18.620;2022-09-27T04:07:47;72.55;;;37.95;;
36415;SDS011;22447;44.530;18.620;2022-09-27T04:10:15;75.13;;;39.60;;
36415;SDS011;22447;44.530;18.620;2022-09-27T04:12:42;71.30;;;36.15;;
36415;SDS011;22447;44.530;18.620;2022-09-27T04:15:09;84.45;;;38.75;;
36415;SDS011;22447;44.530;18.620;2022-09-27T04:17:48;83.05;;;37.97;;
36415;SDS011;22447;44.530;18.620;2022-09-27T04:20:29;71.30;;;37.17;;
36415;SDS011;22447;44.530;18.620;2022-09-27T04:22:57;80.85;;;38.72;;
36415;SDS011;22447;44.530;18.620;2022-09-27T04:25:23;82.50;;;40.88;;
36415;SDS011;22447;44.530;18.620;2022-09-27T04:27:52;80.43;;;39.92;;
36415;SDS011;22447;44.530;18.620;2022-09-27T04:30:19;79.82;;;40.50;;
36415;SDS011;22447;44.530;18.620;2022-09-27T04:33:10;69.43;;;37.22;;
36415;SDS011;22447;44.530;18.620;2022-09-27T04:35:39;80.40;;;39.20;;
36415;SDS011;22447;44.530;18.620;2022-09-27T04:38:24;63.28;;;36.55;;
36415;SDS011;22447;44.530;18.620;2022-09-27T04:40:50;78.20;;;40.13;;
36415;SDS011;22447;44.530;18.620;2022-09-27T04:43:16;75.80;;;39.42;;
36415;SDS011;22447;44.530;18.620;2022-09-27T04:45:43;88.20;;;42.63;;
36415;SDS011;22447;44.530;18.620;2022-09-27T04:48:09;94.85;;;45.60;;
36415;SDS011;22447;44.530;18.620;2022-09-27T04:50:37;95.85;;;47.45;;
36415;SDS011;22447;44.530;18.620;2022-09-27T04:53:04;93.90;;;46.95;;
36415;SDS011;22447;44.530;18.620;2022-09-27T04:55:31;89.53;;;42.80;;
36415;SDS011;22447;44.530;18.620;2022-09-27T04:57:58;86.45;;;42.88;;
36415;SDS011;22447;44.530;18.620;2022-09-27T05:00:26;77.75;;;40.38;;
36415;SDS011;22447;44.530;18.620;2022-09-27T05:03:00;83.43;;;43.50;;
36415;SDS011;22447;44.530;18.620;2022-09-27T05:05:40;93.28;;;43.60;;
36415;SDS011;22447;44.530;18.620;2022-09-27T05:08:06;76.13;;;39.78;;
36415;SDS011;22447;44.530;18.620;2022-09-27T05:10:52;77.53;;;41.40;;
36415;SDS011;22447;44.530;18.620;2022-09-27T05:13:19;76.80;;;40.50;;
36415;SDS011;22447;44.530;18.620;2022-09-27T05:15:45;73.85;;;38.65;;
36415;SDS011;22447;44.530;18.620;2022-09-27T05:18:30;83.90;;;38.15;;
36415;SDS011;22447;44.530;18.620;2022-09-27T05:21:19;66.63;;;35.45;;
36415;SDS011;22447;44.530;18.620;2022-09-27T05:23:45;64.32;;;34.70;;
36415;SDS011;22447;44.530;18.620;2022-09-27T05:26:11;67.30;;;35.30;;
36415;SDS011;22447;44.530;18.620;2022-09-27T05:28:37;75.18;;;35.13;;
36415;SDS011;22447;44.530;18.620;2022-09-27T05:31:04;70.80;;;35.05;;
36415;SDS011;22447;44.530;18.620;2022-09-27T05:33:30;57.42;;;31.58;;
36415;SDS011;22447;44.530;18.620;2022-09-27T05:36:17;60.22;;;31.30;;
36415;SDS011;22447;44.530;18.620;2022-09-27T05:38:43;58.50;;;31.05;;
36415;SDS011;22447;44.530;18.620;2022-09-27T05:41:09;57.22;;;31.48;;
36415;SDS011;22447;44.530;18.620;2022-09-27T05:43:35;59.28;;;32.13;;
36415;SDS011;22447;44.530;18.620;2022-09-27T05:46:01;62.72;;;32.20;;
36415;SDS011;22447;44.530;18.620;2022-09-27T05:48:30;53.95;;;31.10;;
36415;SDS011;22447;44.530;18.620;2022-09-27T05:51:03;58.92;;;32.53;;
36415;SDS011;22447;44.530;18.620;2022-09-27T05:53:31;54.20;;;30.67;;
36415;SDS011;22447;44.530;18.620;2022-09-27T05:56:01;55.65;;;29.42;;
36415;SDS011;22447;44.530;18.620;2022-09-27T05:58:50;55.13;;;30.70;;
36415;SDS011;22447;44.530;18.620;2022-09-27T06:01:19;61.45;;;30.45;;
36415;SDS011;22447;44.530;18.620;2022-09-27T06:04:06;51.63;;;27.67;;
36415;SDS011;22447;44.530;18.620;2022-09-27T06:06:58;59.90;;;30.00;;
36415;SDS011;22447;44.530;18.620;2022-09-27T06:09:24;56.80;;;29.33;;
36415;SDS011;22447;44.530;18.620;2022-09-27T06:11:51;65.38;;;32.78;;
36415;SDS011;22447;44.530;18.620;2022-09-27T06:14:18;65.55;;;32.92;;
36415;SDS011;22447;44.530;18.620;2022-09-27T06:16:57;63.95;;;31.55;;
36415;SDS011;22447;44.530;18.620;2022-09-27T06:19:26;45.40;;;28.77;;
36415;SDS011;22447;44.530;18.620;2022-09-27T06:21:52;53.58;;;32.83;;
36415;SDS011;22447;44.530;18.620;2022-09-27T06:24:19;52.95;;;32.88;;
36415;SDS011;22447;44.530;18.620;2022-09-27T06:26:45;55.97;;;33.72;;
36415;SDS011;22447;44.530;18.620;2022-09-27T06:29:24;58.55;;;34.50;;
36415;SDS011;22447;44.530;18.620;2022-09-27T06:31:57;59.20;;;33.63;;
36415;SDS011;22447;44.530;18.620;2022-09-27T06:34:31;55.00;;;31.60;;
36415;SDS011;22447;44.530;18.620;2022-09-27T06:36:57;58.03;;;31.85;;
36415;SDS011;22447;44.530;18.620;2022-09-27T06:39:25;52.28;;;31.45;;
36415;SDS011;22447;44.530;18.620;2022-09-27T06:42:11;61.50;;;32.38;;
36415;SDS011;22447;44.530;18.620;2022-09-27T06:45:02;54.60;;;30.55;;
36415;SDS011;22447;44.530;18.620;2022-09-27T06:48:04;53.95;;;29.92;;
36415;SDS011;22447;44.530;18.620;2022-09-27T06:50:39;62.28;;;32.58;;
36415;SDS011;22447;44.530;18.620;2022-09-27T06:53:07;49.08;;;31.00;;
36415;SDS011;22447;44.530;18.620;2022-09-27T06:55:35;48.17;;;29.33;;
36415;SDS011;22447;44.530;18.620;2022-09-27T06:58:01;60.35;;;30.63;;
36415;SDS011;22447;44.530;18.620;2022-09-27T07:01:08;47.33;;;29.60;;
36415;SDS011;22447;44.530;18.620;2022-09-27T07:03:53;49.88;;;30.80;;
36415;SDS011;22447;44.530;18.620;2022-09-27T07:06:38;54.03;;;29.52;;
36415;SDS011;22447;44.530;18.620;2022-09-27T07:09:15;47.65;;;29.45;;
36415;SDS011;22447;44.530;18.620;2022-09-27T07:11:41;50.88;;;29.40;;
36415;SDS011;22447;44.530;18.620;2022-09-27T07:14:10;57.95;;;30.02;;
36415;SDS011;22447;44.530;18.620;2022-09-27T07:16:36;61.05;;;32.72;;
36415;SDS011;22447;44.530;18.620;2022-09-27T07:19:03;54.30;;;31.30;;
36415;SDS011;22447;44.530;18.620;2022-09-27T07:21:32;50.92;;;30.98;;
36415;SDS011;22447;44.530;18.620;2022-09-27T07:23:59;53.30;;;32.50;;
36415;SDS011;22447;44.530;18.620;2022-09-27T07:26:26;55.22;;;33.22;;
36415;SDS011;22447;44.530;18.620;2022-09-27T07:28:52;66.72;;;35.35;;
36415;SDS011;22447;44.530;18.620;2022-09-27T07:31:20;62.17;;;35.55;;
36415;SDS011;22447;44.530;18.620;2022-09-27T07:33:47;60.92;;;35.08;;
36415;SDS011;22447;44.530;18.620;2022-09-27T07:36:13;65.55;;;36.67;;
36415;SDS011;22447;44.530;18.620;2022-09-27T07:38:41;73.45;;;38.17;;
36415;SDS011;22447;44.530;18.620;2022-09-27T07:41:08;68.15;;;34.83;;
36415;SDS011;22447;44.530;18.620;2022-09-27T07:43:37;62.40;;;31.05;;
36415;SDS011;22447;44.530;18.620;2022-09-27T07:46:03;43.72;;;25.55;;
36415;SDS011;22447;44.530;18.620;2022-09-27T07:48:50;53.28;;;27.08;;
36415;SDS011;22447;44.530;18.620;2022-09-27T07:51:52;44.65;;;27.13;;
36415;SDS011;22447;44.530;18.620;2022-09-27T07:54:39;48.55;;;25.80;;
36415;SDS011;22447;44.530;18.620;2022-09-27T07:57:21;39.75;;;23.40;;
36415;SDS011;22447;44.530;18.620;2022-09-27T07:59:50;34.55;;;21.73;;
36415;SDS011;22447;44.530;18.620;2022-09-27T08:02:19;41.60;;;23.60;;
36415;SDS011;22447;44.530;18.620;2022-09-27T08:04:47;52.70;;;30.90;;
36415;SDS011;22447;44.530;18.620;2022-09-27T08:07:13;38.97;;;26.52;;
36415;SDS011;22447;44.530;18.620;2022-09-27T08:09:42;29.50;;;19.88;;
36415;SDS011;22447;44.530;18.620;2022-09-27T08:12:07;45.42;;;21.45;;
36415;SDS011;22447;44.530;18.620;2022-09-27T08:14:35;31.95;;;21.27;;
36415;SDS011;22447;44.530;18.620;2022-09-27T08:17:01;32.38;;;19.73;;
36415;SDS011;22447;44.530;18.620;2022-09-27T08:19:27;31.35;;;18.45;;
36415;SDS011;22447;44.530;18.620;2022-09-27T08:22:20;40.13;;;17.80;;
36415;SDS011;22447;44.530;18.620;2022-09-27T08:24:59;36.58;;;18.77;;
36415;SDS011;22447;44.530;18.620;2022-09-27T08:27:42;42.75;;;18.13;;
36415;SDS011;22447;44.530;18.620;2022-09-27T08:30:31;45.00;;;20.02;;
36415;SDS011;22447;44.530;18.620;2022-09-27T08:32:59;45.30;;;18.63;;
36415;SDS011;22447;44.530;18.620;2022-09-27T08:35:28;42.35;;;18.35;;
36415;SDS011;22447;44.530;18.620;2022-09-27T08:37:56;31.58;;;15.70;;
36415;SDS011;22447;44.530;18.620;2022-09-27T08:40:30;27.48;;;15.07;;
36415;SDS011;22447;44.530;18.620;2022-09-27T08:46:10;30.52;;;15.90;;
36415;SDS011;22447;44.530;18.620;2022-09-27T08:48:38;30.08;;;15.80;;
36415;SDS011;22447;44.530;18.620;2022-09-27T08:51:05;27.33;;;16.00;;
36415;SDS011;22447;44.530;18.620;2022-09-27T08:56:07;28.20;;;16.10;;
36415;SDS011;22447;44.530;18.620;2022-09-27T08:58:47;36.50;;;16.92;;
36415;SDS011;22447;44.530;18.620;2022-09-27T09:01:21;29.20;;;16.47;;
36415;SDS011;22447;44.530;18.620;2022-09-27T09:04:14;51.83;;;22.00;;
36415;SDS011;22447;44.530;18.620;2022-09-27T09:10:32;45.97;;;20.95;;
36415;SDS011;22447;44.530;18.620;2022-09-27T09:35:25;43.58;;;18.05;;
36415;SDS011;22447;44.530;18.620;2022-09-27T09:37:57;40.00;;;18.48;;
36415;SDS011;22447;44.530;18.620;2022-09-27T09:40:28;25.30;;;15.18;;
36415;SDS011;22447;44.530;18.620;2022-09-27T09:43:12;25.13;;;14.60;;
36415;SDS011;22447;44.530;18.620;2022-09-27T09:46:44;20.77;;;13.98;;
36415;SDS011;22447;44.530;18.620;2022-09-27T09:51:47;29.87;;;17.53;;
36415;SDS011;22447;44.530;18.620;2022-09-27T09:54:35;106.53;;;38.10;;
36415;SDS011;22447;44.530;18.620;2022-09-27T09:57:13;154.70;;;50.83;;
36415;SDS011;22447;44.530;18.620;2022-09-27T10:02:41;147.88;;;49.70;;
36415;SDS011;22447;44.530;18.620;2022-09-27T10:05:15;161.40;;;54.90;;
36415;SDS011;22447;44.530;18.620;2022-09-27T10:08:00;175.98;;;59.15;;
36415;SDS011;22447;44.530;18.620;2022-09-27T10:10:28;171.02;;;56.10;;
36415;SDS011;22447;44.530;18.620;2022-09-27T10:13:21;166.48;;;58.13;;
36415;SDS011;22447;44.530;18.620;2022-09-27T10:15:53;147.60;;;55.55;;
36415;SDS011;22447;44.530;18.620;2022-09-27T10:18:26;149.75;;;54.60;;
36415;SDS011;22447;44.530;18.620;2022-09-27T10:20:58;149.60;;;54.83;;
36415;SDS011;22447;44.530;18.620;2022-09-27T10:23:28;144.98;;;53.45;;
36415;SDS011;22447;44.530;18.620;2022-09-27T10:26:16;147.40;;;54.13;;
36415;SDS011;22447;44.530;18.620;2022-09-27T10:28:45;135.68;;;53.92;;
36415;SDS011;22447;44.530;18.620;2022-09-27T10:31:18;138.48;;;52.75;;
36415;SDS011;22447;44.530;18.620;2022-09-27T10:33:58;124.63;;;51.42;;
36415;SDS011;22447;44.530;18.620;2022-09-27T10:36:33;117.35;;;47.05;;
36415;SDS011;22447;44.530;18.620;2022-09-27T10:39:04;115.32;;;45.10;;
36415;SDS011;22447;44.530;18.620;2022-09-27T10:41:40;102.82;;;40.80;;
36415;SDS011;22447;44.530;18.620;2022-09-27T10:46:49;98.05;;;41.25;;
36415;SDS011;22447;44.530;18.620;2022-09-27T10:49:38;97.78;;;38.83;;
36415;SDS011;22447;44.530;18.620;2022-09-27T10:52:18;89.93;;;37.90;;
36415;SDS011;22447;44.530;18.620;2022-09-27T10:54:56;83.07;;;36.58;;
36415;SDS011;22447;44.530;18.620;2022-09-27T10:57:29;84.20;;;36.20;;
36415;SDS011;22447;44.530;18.620;2022-09-27T10:59:58;74.80;;;33.47;;
36415;SDS011;22447;44.530;18.620;2022-09-27T11:02:30;70.97;;;33.58;;
36415;SDS011;22447;44.530;18.620;2022-09-27T11:05:10;68.13;;;31.00;;
36415;SDS011;22447;44.530;18.620;2022-09-27T11:07:46;64.90;;;28.65;;
36415;SDS011;22447;44.530;18.620;2022-09-27T11:10:21;60.90;;;25.30;;
36415;SDS011;22447;44.530;18.620;2022-09-27T11:18:23;69.68;;;33.47;;
36415;SDS011;22447;44.530;18.620;2022-09-27T11:23:53;68.97;;;34.03;;
36415;SDS011;22447;44.530;18.620;2022-09-27T11:32:54;55.55;;;27.85;;
36415;SDS011;22447;44.530;18.620;2022-09-27T11:43:39;51.00;;;25.20;;
36415;SDS011;22447;44.530;18.620;2022-09-27T11:49:04;45.25;;;22.88;;
36415;SDS011;22447;44.530;18.620;2022-09-27T11:52:03;39.38;;;20.05;;
36415;SDS011;22447;44.530;18.620;2022-09-27T11:54:54;34.13;;;16.90;;
36415;SDS011;22447;44.530;18.620;2022-09-27T11:57:41;27.73;;;13.50;;
36415;SDS011;22447;44.530;18.620;2022-09-27T12:00:23;23.17;;;12.48;;
36415;SDS011;22447;44.530;18.620;2022-09-27T12:03:16;23.02;;;10.82;;
36415;SDS011;22447;44.530;18.620;2022-09-27T12:05:49;25.92;;;13.05;;
36415;SDS011;22447;44.530;18.620;2022-09-27T12:08:27;22.60;;;11.32;;
36415;SDS011;22447;44.530;18.620;2022-09-27T12:11:04;18.50;;;11.73;;
36415;SDS011;22447;44.530;18.620;2022-09-27T12:13:46;23.13;;;12.05;;
36415;SDS011;22447;44.530;18.620;2022-09-27T12:16:21;23.48;;;12.57;;
36415;SDS011;22447;44.530;18.620;2022-09-27T12:18:48;23.20;;;11.32;;
36415;SDS011;22447;44.530;18.620;2022-09-27T12:21:36;24.08;;;11.52;;
36415;SDS011;22447;44.530;18.620;2022-09-27T12:24:02;23.98;;;11.98;;
36415;SDS011;22447;44.530;18.620;2022-09-27T12:34:50;17.45;;;10.15;;
36415;SDS011;22447;44.530;18.620;2022-09-27T12:37:56;18.52;;;9.18;;
36415;SDS011;22447;44.530;18.620;2022-09-27T12:40:26;11.40;;;7.03;;
36415;SDS011;22447;44.530;18.620;2022-09-27T12:53:43;22.65;;;8.75;;
36415;SDS011;22447;44.530;18.620;2022-09-27T12:58:57;15.05;;;8.20;;
36415;SDS011;22447;44.530;18.620;2022-09-27T13:04:20;19.45;;;7.93;;
36415;SDS011;22447;44.530;18.620;2022-09-27T13:07:07;13.02;;;7.53;;
36415;SDS011;22447;44.530;18.620;2022-09-27T13:12:29;33.10;;;12.18;;
36415;SDS011;22447;44.530;18.620;2022-09-27T13:15:03;23.48;;;11.45;;
36415;SDS011;22447;44.530;18.620;2022-09-27T13:22:53;24.27;;;12.35;;
36415;SDS011;22447;44.530;18.620;2022-09-27T13:32:09;9.85;;;5.95;;
36415;SDS011;22447;44.530;18.620;2022-09-27T13:34:41;14.13;;;5.50;;
36415;SDS011;22447;44.530;18.620;2022-09-27T13:37:45;11.15;;;5.32;;
36415;SDS011;22447;44.530;18.620;2022-09-27T13:40:27;10.10;;;6.50;;
36415;SDS011;22447;44.530;18.620;2022-09-27T13:46:14;26.23;;;12.95;;
36415;SDS011;22447;44.530;18.620;2022-09-27T13:48:51;20.23;;;8.23;;
36415;SDS011;22447;44.530;18.620;2022-09-27T13:51:43;11.82;;;6.05;;
36415;SDS011;22447;44.530;18.620;2022-09-27T13:57:07;15.85;;;7.85;;
36415;SDS011;22447;44.530;18.620;2022-09-27T14:00:15;14.32;;;7.00;;
36415;SDS011;22447;44.530;18.620;2022-09-27T14:05:51;18.98;;;7.80;;
36415;SDS011;22447;44.530;18.620;2022-09-27T14:10:48;17.67;;;8.00;;
36415;SDS011;22447;44.530;18.620;2022-09-27T14:13:15;13.07;;;6.60;;
36415;SDS011;22447;44.530;18.620;2022-09-27T14:15:55;23.13;;;7.40;;
36415;SDS011;22447;44.530;18.620;2022-09-27T14:18:25;18.60;;;6.53;;
36415;SDS011;22447;44.530;18.620;2022-09-27T14:20:52;17.50;;;7.97;;
36415;SDS011;22447;44.530;18.620;2022-09-27T14:26:42;8.75;;;4.72;;
36415;SDS011;22447;44.530;18.620;2022-09-27T14:29:15;15.00;;;6.88;;
36415;SDS011;22447;44.530;18.620;2022-09-27T14:31:46;20.00;;;8.32;;
36415;SDS011;22447;44.530;18.620;2022-09-27T14:34:36;9.13;;;5.43;;
36415;SDS011;22447;44.530;18.620;2022-09-27T14:37:04;13.32;;;6.47;;
36415;SDS011;22447;44.530;18.620;2022-09-27T14:39:55;8.60;;;5.28;;
36415;SDS011;22447;44.530;18.620;2022-09-27T14:42:29;8.25;;;5.20;;
36415;SDS011;22447;44.530;18.620;2022-09-27T14:45:20;13.27;;;6.03;;
36415;SDS011;22447;44.530;18.620;2022-09-27T14:47:49;10.38;;;5.32;;
36415;SDS011;22447;44.530;18.620;2022-09-27T14:50:17;9.30;;;5.53;;
36415;SDS011;22447;44.530;18.620;2022-09-27T14:52:46;6.30;;;4.53;;
36415;SDS011;22447;44.530;18.620;2022-09-27T14:55:17;6.40;;;4.53;;
36415;SDS011;22447;44.530;18.620;2022-09-27T14:57:46;6.78;;;4.07;;
36415;SDS011;22447;44.530;18.620;2022-09-27T15:00:19;18.48;;;6.80;;
36415;SDS011;22447;44.530;18.620;2022-09-27T15:02:53;13.65;;;7.28;;
36415;SDS011;22447;44.530;18.620;2022-09-27T15:05:21;30.38;;;15.65;;
36415;SDS011;22447;44.530;18.620;2022-09-27T15:07:49;37.95;;;16.65;;
36415;SDS011;22447;44.530;18.620;2022-09-27T15:10:17;10.10;;;5.97;;
36415;SDS011;22447;44.530;18.620;2022-09-27T15:12:46;13.73;;;6.50;;
36415;SDS011;22447;44.530;18.620;2022-09-27T15:15:18;8.75;;;5.57;;
36415;SDS011;22447;44.530;18.620;2022-09-27T15:17:48;10.77;;;4.75;;
36415;SDS011;22447;44.530;18.620;2022-09-27T15:22:49;14.18;;;5.65;;
36415;SDS011;22447;44.530;18.620;2022-09-27T15:27:51;17.40;;;7.68;;
36415;SDS011;22447;44.530;18.620;2022-09-27T15:30:26;16.38;;;6.75;;
36415;SDS011;22447;44.530;18.620;2022-09-27T15:33:03;10.45;;;4.13;;
36415;SDS011;22447;44.530;18.620;2022-09-27T15:35:33;7.90;;;4.03;;
36415;SDS011;22447;44.530;18.620;2022-09-27T15:38:10;7.68;;;3.78;;
36415;SDS011;22447;44.530;18.620;2022-09-27T15:45:50;13.43;;;7.55;;
36415;SDS011;22447;44.530;18.620;2022-09-27T15:48:18;25.20;;;12.35;;
36415;SDS011;22447;44.530;18.620;2022-09-27T15:50:45;22.08;;;10.52;;
36415;SDS011;22447;44.530;18.620;2022-09-27T15:53:38;17.40;;;7.88;;
36415;SDS011;22447;44.530;18.620;2022-09-27T15:55:58;18.40;;;8.45;;
36415;SDS011;22447;44.530;18.620;2022-09-27T15:58:25;16.75;;;9.23;;
36415;SDS011;22447;44.530;18.620;2022-09-27T16:00:56;20.70;;;9.18;;
36415;SDS011;22447;44.530;18.620;2022-09-27T16:03:33;21.08;;;8.35;;
36415;SDS011;22447;44.530;18.620;2022-09-27T16:06:01;16.88;;;7.70;;
36415;SDS011;22447;44.530;18.620;2022-09-27T16:08:28;15.35;;;7.05;;
36415;SDS011;22447;44.530;18.620;2022-09-27T16:10:55;15.57;;;7.50;;
36415;SDS011;22447;44.530;18.620;2022-09-27T16:13:23;20.63;;;9.13;;
36415;SDS011;22447;44.530;18.620;2022-09-27T16:15:50;22.52;;;10.10;;
36415;SDS011;22447;44.530;18.620;2022-09-27T16:18:16;24.92;;;9.10;;
36415;SDS011;22447;44.530;18.620;2022-09-27T16:20:42;23.35;;;9.73;;
36415;SDS011;22447;44.530;18.620;2022-09-27T16:23:09;24.83;;;9.23;;
36415;SDS011;22447;44.530;18.620;2022-09-27T16:25:35;29.98;;;10.93;;
36415;SDS011;22447;44.530;18.620;2022-09-27T16:28:01;35.92;;;13.07;;
36415;SDS011;22447;44.530;18.620;2022-09-27T16:30:28;34.55;;;14.85;;
36415;SDS011;22447;44.530;18.620;2022-09-27T16:32:55;56.22;;;20.60;;
36415;SDS011;22447;44.530;18.620;2022-09-27T16:35:23;82.47;;;33.13;;
36415;SDS011;22447;44.530;18.620;2022-09-27T16:37:49;52.55;;;22.73;;
36415;SDS011;22447;44.530;18.620;2022-09-27T16:40:15;36.88;;;14.02;;
36415;SDS011;22447;44.530;18.620;2022-09-27T16:42:48;21.52;;;10.57;;
36415;SDS011;22447;44.530;18.620;2022-09-27T16:45:14;29.67;;;12.18;;
36415;SDS011;22447;44.530;18.620;2022-09-27T16:47:41;41.08;;;17.05;;
36415;SDS011;22447;44.530;18.620;2022-09-27T16:50:11;37.83;;;16.15;;
36415;SDS011;22447;44.530;18.620;2022-09-27T16:52:56;43.60;;;17.45;;
36415;SDS011;22447;44.530;18.620;2022-09-27T16:55:24;29.88;;;11.73;;
36415;SDS011;22447;44.530;18.620;2022-09-27T16:57:53;28.60;;;11.00;;
36415;SDS011;22447;44.530;18.620;2022-09-27T17:00:21;30.08;;;10.50;;
36415;SDS011;22447;44.530;18.620;2022-09-27T17:02:47;25.42;;;11.75;;
36415;SDS011;22447;44.530;18.620;2022-09-27T17:05:13;30.58;;;12.65;;
36415;SDS011;22447;44.530;18.620;2022-09-27T17:07:40;27.58;;;10.30;;
36415;SDS011;22447;44.530;18.620;2022-09-27T17:10:06;21.17;;;8.60;;
36415;SDS011;22447;44.530;18.620;2022-09-27T17:12:33;26.80;;;9.13;;
36415;SDS011;22447;44.530;18.620;2022-09-27T17:14:59;32.00;;;12.13;;
36415;SDS011;22447;44.530;18.620;2022-09-27T17:17:25;35.47;;;10.85;;
36415;SDS011;22447;44.530;18.620;2022-09-27T17:19:51;31.15;;;11.02;;
36415;SDS011;22447;44.530;18.620;2022-09-27T17:22:17;41.40;;;16.42;;
36415;SDS011;22447;44.530;18.620;2022-09-27T17:24:43;56.55;;;22.85;;
36415;SDS011;22447;44.530;18.620;2022-09-27T17:27:09;90.93;;;34.28;;
36415;SDS011;22447;44.530;18.620;2022-09-27T17:29:35;66.32;;;25.50;;
36415;SDS011;22447;44.530;18.620;2022-09-27T17:32:02;75.95;;;32.58;;
36415;SDS011;22447;44.530;18.620;2022-09-27T17:34:32;143.27;;;56.33;;
36415;SDS011;22447;44.530;18.620;2022-09-27T17:36:59;97.20;;;37.25;;
36415;SDS011;22447;44.530;18.620;2022-09-27T17:39:25;91.45;;;35.53;;